sensor_id;sensor_type;location;lat;lon;timestamp;temperature;humidity
70271;SHT31;57680;54.292;18.598;2023-04-25T00:02:00;10.99;93.34
70271;SHT31;57680;54.292;18.598;2023-04-25T00:04:27;11.04;93.39
70271;SHT31;57680;54.292;18.598;2023-04-25T00:06:53;11.12;92.99
70271;SHT31;57680;54.292;18.598;2023-04-25T00:09:19;11.07;92.89
70271;SHT31;57680;54.292;18.598;2023-04-25T00:11:44;11.06;93.04
70271;SHT31;57680;54.292;18.598;2023-04-25T00:14:09;11.03;92.99
70271;SHT31;57680;54.292;18.598;2023-04-25T00:16:35;11.02;93.10
70271;SHT31;57680;54.292;18.598;2023-04-25T00:19:01;11.02;93.13
70271;SHT31;57680;54.292;18.598;2023-04-25T00:21:27;11.02;93.13
70271;SHT31;57680;54.292;18.598;2023-04-25T00:23:52;11.00;92.92
70271;SHT31;57680;54.292;18.598;2023-04-25T00:26:18;11.04;92.81
70271;SHT31;57680;54.292;18.598;2023-04-25T00:28:43;11.03;92.97
70271;SHT31;57680;54.292;18.598;2023-04-25T00:31:09;10.99;93.04
70271;SHT31;57680;54.292;18.598;2023-04-25T00:33:34;11.02;93.13
70271;SHT31;57680;54.292;18.598;2023-04-25T00:36:00;11.02;93.26
70271;SHT31;57680;54.292;18.598;2023-04-25T00:38:25;11.02;93.19
70271;SHT31;57680;54.292;18.598;2023-04-25T00:40:51;11.03;93.35
70271;SHT31;57680;54.292;18.598;2023-04-25T00:43:16;11.00;93.31
70271;SHT31;57680;54.292;18.598;2023-04-25T00:45:42;10.97;93.48
70271;SHT31;57680;54.292;18.598;2023-04-25T00:48:08;11.00;93.56
70271;SHT31;57680;54.292;18.598;2023-04-25T00:50:33;10.99;93.80
70271;SHT31;57680;54.292;18.598;2023-04-25T00:53:00;10.99;93.82
70271;SHT31;57680;54.292;18.598;2023-04-25T00:55:26;11.00;93.93
70271;SHT31;57680;54.292;18.598;2023-04-25T00:57:51;11.00;94.00
70271;SHT31;57680;54.292;18.598;2023-04-25T01:00:17;11.00;94.26
70271;SHT31;57680;54.292;18.598;2023-04-25T01:02:43;10.97;94.40
70271;SHT31;57680;54.292;18.598;2023-04-25T01:05:09;10.95;94.57
70271;SHT31;57680;54.292;18.598;2023-04-25T01:07:34;10.95;94.62
70271;SHT31;57680;54.292;18.598;2023-04-25T01:10:00;10.92;94.79
70271;SHT31;57680;54.292;18.598;2023-04-25T01:12:26;10.92;94.94
70271;SHT31;57680;54.292;18.598;2023-04-25T01:14:51;10.91;94.99
70271;SHT31;57680;54.292;18.598;2023-04-25T01:17:17;10.93;95.03
70271;SHT31;57680;54.292;18.598;2023-04-25T01:19:43;10.92;95.04
70271;SHT31;57680;54.292;18.598;2023-04-25T01:22:09;10.92;95.14
70271;SHT31;57680;54.292;18.598;2023-04-25T01:24:35;10.91;95.14
70271;SHT31;57680;54.292;18.598;2023-04-25T01:27:00;10.91;95.22
70271;SHT31;57680;54.292;18.598;2023-04-25T01:29:27;10.89;95.31
70271;SHT31;57680;54.292;18.598;2023-04-25T01:31:53;10.88;95.24
70271;SHT31;57680;54.292;18.598;2023-04-25T01:34:19;10.86;95.30
70271;SHT31;57680;54.292;18.598;2023-04-25T01:36:44;10.85;95.44
70271;SHT31;57680;54.292;18.598;2023-04-25T01:39:10;10.82;95.40
70271;SHT31;57680;54.292;18.598;2023-04-25T01:41:35;10.83;95.46
70271;SHT31;57680;54.292;18.598;2023-04-25T01:44:01;10.80;95.52
70271;SHT31;57680;54.292;18.598;2023-04-25T01:46:27;10.79;95.57
70271;SHT31;57680;54.292;18.598;2023-04-25T01:48:53;10.82;95.52
70271;SHT31;57680;54.292;18.598;2023-04-25T01:51:18;10.83;95.59
70271;SHT31;57680;54.292;18.598;2023-04-25T01:53:44;10.80;95.60
70271;SHT31;57680;54.292;18.598;2023-04-25T01:56:10;10.79;95.67
70271;SHT31;57680;54.292;18.598;2023-04-25T01:58:35;10.77;95.72
70271;SHT31;57680;54.292;18.598;2023-04-25T02:01:00;10.80;95.77
70271;SHT31;57680;54.292;18.598;2023-04-25T02:03:26;10.75;95.76
70271;SHT31;57680;54.292;18.598;2023-04-25T02:05:51;10.75;95.83
70271;SHT31;57680;54.292;18.598;2023-04-25T02:08:17;10.76;95.89
70271;SHT31;57680;54.292;18.598;2023-04-25T02:10:43;10.73;95.96
70271;SHT31;57680;54.292;18.598;2023-04-25T02:13:08;10.75;95.98
70271;SHT31;57680;54.292;18.598;2023-04-25T02:15:34;10.75;96.00
70271;SHT31;57680;54.292;18.598;2023-04-25T02:17:59;10.72;96.05
70271;SHT31;57680;54.292;18.598;2023-04-25T02:20:25;10.75;96.05
70271;SHT31;57680;54.292;18.598;2023-04-25T02:22:51;10.73;96.08
70271;SHT31;57680;54.292;18.598;2023-04-25T02:25:17;10.75;96.14
70271;SHT31;57680;54.292;18.598;2023-04-25T02:27:42;10.69;96.20
70271;SHT31;57680;54.292;18.598;2023-04-25T02:30:08;10.72;96.20
70271;SHT31;57680;54.292;18.598;2023-04-25T02:32:34;10.71;96.24
70271;SHT31;57680;54.292;18.598;2023-04-25T02:35:00;10.69;96.32
70271;SHT31;57680;54.292;18.598;2023-04-25T02:37:25;10.71;96.33
70271;SHT31;57680;54.292;18.598;2023-04-25T02:39:51;10.68;96.35
70271;SHT31;57680;54.292;18.598;2023-04-25T02:42:16;10.65;96.41
70271;SHT31;57680;54.292;18.598;2023-04-25T02:44:41;10.61;96.51
70271;SHT31;57680;54.292;18.598;2023-04-25T02:47:07;10.64;96.55
70271;SHT31;57680;54.292;18.598;2023-04-25T02:49:32;10.66;96.48
70271;SHT31;57680;54.292;18.598;2023-04-25T02:51:57;10.64;96.56
70271;SHT31;57680;54.292;18.598;2023-04-25T02:54:23;10.61;96.62
70271;SHT31;57680;54.292;18.598;2023-04-25T02:56:48;10.62;96.65
70271;SHT31;57680;54.292;18.598;2023-04-25T02:59:13;10.62;96.64
70271;SHT31;57680;54.292;18.598;2023-04-25T03:01:39;10.56;96.67
70271;SHT31;57680;54.292;18.598;2023-04-25T03:04:04;10.58;96.74
70271;SHT31;57680;54.292;18.598;2023-04-25T03:06:29;10.62;96.67
70271;SHT31;57680;54.292;18.598;2023-04-25T03:08:55;10.58;96.66
70271;SHT31;57680;54.292;18.598;2023-04-25T03:11:20;10.58;96.63
70271;SHT31;57680;54.292;18.598;2023-04-25T03:13:46;10.56;96.56
70271;SHT31;57680;54.292;18.598;2023-04-25T03:16:11;10.58;96.50
70271;SHT31;57680;54.292;18.598;2023-04-25T03:18:37;10.59;96.35
70271;SHT31;57680;54.292;18.598;2023-04-25T03:21:02;10.56;96.19
70271;SHT31;57680;54.292;18.598;2023-04-25T03:23:28;10.56;95.91
70271;SHT31;57680;54.292;18.598;2023-04-25T03:25:53;10.56;95.88
70271;SHT31;57680;54.292;18.598;2023-04-25T03:28:19;10.59;95.86
70271;SHT31;57680;54.292;18.598;2023-04-25T03:30:44;10.56;95.74
70271;SHT31;57680;54.292;18.598;2023-04-25T03:33:09;10.56;95.65
70271;SHT31;57680;54.292;18.598;2023-04-25T03:35:34;10.54;95.59
70271;SHT31;57680;54.292;18.598;2023-04-25T03:38:00;10.52;95.66
70271;SHT31;57680;54.292;18.598;2023-04-25T03:40:25;10.51;95.80
70271;SHT31;57680;54.292;18.598;2023-04-25T03:42:50;10.51;95.56
70271;SHT31;57680;54.292;18.598;2023-04-25T03:45:16;10.51;95.63
70271;SHT31;57680;54.292;18.598;2023-04-25T03:47:41;10.54;95.58
70271;SHT31;57680;54.292;18.598;2023-04-25T03:50:07;10.54;95.37
70271;SHT31;57680;54.292;18.598;2023-04-25T03:52:32;10.64;93.60
70271;SHT31;57680;54.292;18.598;2023-04-25T03:54:57;10.49;92.62
70271;SHT31;57680;54.292;18.598;2023-04-25T03:57:23;10.31;90.53
70271;SHT31;57680;54.292;18.598;2023-04-25T03:59:48;10.08;89.11
70271;SHT31;57680;54.292;18.598;2023-04-25T04:02:13;9.80;88.67
70271;SHT31;57680;54.292;18.598;2023-04-25T04:04:39;9.69;88.58
70271;SHT31;57680;54.292;18.598;2023-04-25T04:07:04;9.67;87.40
70271;SHT31;57680;54.292;18.598;2023-04-25T04:09:29;9.66;88.05
70271;SHT31;57680;54.292;18.598;2023-04-25T04:11:55;9.55;88.49
70271;SHT31;57680;54.292;18.598;2023-04-25T04:14:20;9.36;89.29
70271;SHT31;57680;54.292;18.598;2023-04-25T04:16:45;9.45;89.11
70271;SHT31;57680;54.292;18.598;2023-04-25T04:19:11;9.39;88.96
70271;SHT31;57680;54.292;18.598;2023-04-25T04:21:36;9.31;88.70
70271;SHT31;57680;54.292;18.598;2023-04-25T04:24:02;9.28;88.92
70271;SHT31;57680;54.292;18.598;2023-04-25T04:26:27;9.25;89.60
70271;SHT31;57680;54.292;18.598;2023-04-25T04:28:53;9.24;89.69
70271;SHT31;57680;54.292;18.598;2023-04-25T04:31:18;9.26;90.21
70271;SHT31;57680;54.292;18.598;2023-04-25T04:33:44;9.16;90.38
70271;SHT31;57680;54.292;18.598;2023-04-25T04:36:09;9.15;90.87
70271;SHT31;57680;54.292;18.598;2023-04-25T04:38:34;9.15;90.72
70271;SHT31;57680;54.292;18.598;2023-04-25T04:40:59;9.22;90.10
70271;SHT31;57680;54.292;18.598;2023-04-25T04:43:25;9.15;90.52
70271;SHT31;57680;54.292;18.598;2023-04-25T04:45:50;9.19;90.31
70271;SHT31;57680;54.292;18.598;2023-04-25T04:48:16;9.14;90.89
70271;SHT31;57680;54.292;18.598;2023-04-25T04:50:44;9.12;91.04
70271;SHT31;57680;54.292;18.598;2023-04-25T04:53:10;9.11;90.99
70271;SHT31;57680;54.292;18.598;2023-04-25T04:55:35;9.22;90.64
70271;SHT31;57680;54.292;18.598;2023-04-25T04:58:00;9.15;90.80
70271;SHT31;57680;54.292;18.598;2023-04-25T05:00:26;9.16;90.70
70271;SHT31;57680;54.292;18.598;2023-04-25T05:02:51;9.31;90.30
70271;SHT31;57680;54.292;18.598;2023-04-25T05:05:16;9.35;90.39
70271;SHT31;57680;54.292;18.598;2023-04-25T05:07:41;9.40;89.91
70271;SHT31;57680;54.292;18.598;2023-04-25T05:10:07;9.34;90.04
70271;SHT31;57680;54.292;18.598;2023-04-25T05:12:33;9.39;89.68
70271;SHT31;57680;54.292;18.598;2023-04-25T05:14:58;9.36;90.48
70271;SHT31;57680;54.292;18.598;2023-04-25T05:17:24;9.36;90.50
70271;SHT31;57680;54.292;18.598;2023-04-25T05:19:49;9.42;90.42
70271;SHT31;57680;54.292;18.598;2023-04-25T05:22:14;9.43;90.46
70271;SHT31;57680;54.292;18.598;2023-04-25T05:24:40;9.52;89.73
70271;SHT31;57680;54.292;18.598;2023-04-25T05:27:05;9.56;89.63
70271;SHT31;57680;54.292;18.598;2023-04-25T05:29:30;9.60;88.77
70271;SHT31;57680;54.292;18.598;2023-04-25T05:31:55;9.60;88.97
70271;SHT31;57680;54.292;18.598;2023-04-25T05:34:21;9.47;88.54
70271;SHT31;57680;54.292;18.598;2023-04-25T05:36:46;9.45;87.84
70271;SHT31;57680;54.292;18.598;2023-04-25T05:39:11;9.36;88.32
70271;SHT31;57680;54.292;18.598;2023-04-25T05:41:37;9.43;87.78
70271;SHT31;57680;54.292;18.598;2023-04-25T05:44:02;9.32;86.90
70271;SHT31;57680;54.292;18.598;2023-04-25T05:46:27;9.28;86.43
70271;SHT31;57680;54.292;18.598;2023-04-25T05:48:53;9.28;86.57
70271;SHT31;57680;54.292;18.598;2023-04-25T05:51:18;9.25;86.44
70271;SHT31;57680;54.292;18.598;2023-04-25T05:53:43;9.16;86.73
70271;SHT31;57680;54.292;18.598;2023-04-25T05:56:09;9.14;87.01
70271;SHT31;57680;54.292;18.598;2023-04-25T05:58:34;9.08;86.80
70271;SHT31;57680;54.292;18.598;2023-04-25T06:01:00;9.08;86.21
70271;SHT31;57680;54.292;18.598;2023-04-25T06:03:25;9.12;86.45
70271;SHT31;57680;54.292;18.598;2023-04-25T06:05:50;9.11;86.14
70271;SHT31;57680;54.292;18.598;2023-04-25T06:08:16;8.92;85.67
70271;SHT31;57680;54.292;18.598;2023-04-25T06:10:41;8.87;84.76
70271;SHT31;57680;54.292;18.598;2023-04-25T06:13:06;8.87;84.50
70271;SHT31;57680;54.292;18.598;2023-04-25T06:15:31;8.77;84.59
70271;SHT31;57680;54.292;18.598;2023-04-25T06:17:57;8.67;85.12
70271;SHT31;57680;54.292;18.598;2023-04-25T06:20:22;8.65;84.64
70271;SHT31;57680;54.292;18.598;2023-04-25T06:22:48;8.64;85.33
70271;SHT31;57680;54.292;18.598;2023-04-25T06:25:13;8.61;85.57
70271;SHT31;57680;54.292;18.598;2023-04-25T06:27:39;8.57;85.73
70271;SHT31;57680;54.292;18.598;2023-04-25T06:30:04;8.60;85.73
70271;SHT31;57680;54.292;18.598;2023-04-25T06:32:30;8.57;85.88
70271;SHT31;57680;54.292;18.598;2023-04-25T06:34:55;8.57;85.80
70271;SHT31;57680;54.292;18.598;2023-04-25T06:37:20;8.53;86.33
70271;SHT31;57680;54.292;18.598;2023-04-25T06:39:46;8.43;86.47
70271;SHT31;57680;54.292;18.598;2023-04-25T06:42:11;8.47;86.71
70271;SHT31;57680;54.292;18.598;2023-04-25T06:44:37;8.60;86.43
70271;SHT31;57680;54.292;18.598;2023-04-25T06:47:02;8.61;86.47
70271;SHT31;57680;54.292;18.598;2023-04-25T06:49:27;8.65;86.10
70271;SHT31;57680;54.292;18.598;2023-04-25T06:51:53;8.75;85.90
70271;SHT31;57680;54.292;18.598;2023-04-25T06:54:18;8.78;85.37
70271;SHT31;57680;54.292;18.598;2023-04-25T06:56:44;8.88;86.09
70271;SHT31;57680;54.292;18.598;2023-04-25T06:59:09;8.95;84.52
70271;SHT31;57680;54.292;18.598;2023-04-25T07:01:34;8.97;85.76
70271;SHT31;57680;54.292;18.598;2023-04-25T07:04:00;9.00;85.49
70271;SHT31;57680;54.292;18.598;2023-04-25T07:06:25;9.05;84.40
70271;SHT31;57680;54.292;18.598;2023-04-25T07:08:51;9.04;84.39
70271;SHT31;57680;54.292;18.598;2023-04-25T07:11:16;9.05;83.92
70271;SHT31;57680;54.292;18.598;2023-04-25T07:13:41;9.07;84.38
70271;SHT31;57680;54.292;18.598;2023-04-25T07:16:07;9.10;84.86
70271;SHT31;57680;54.292;18.598;2023-04-25T07:18:32;9.11;83.23
70271;SHT31;57680;54.292;18.598;2023-04-25T07:20:57;9.16;84.04
70271;SHT31;57680;54.292;18.598;2023-04-25T07:23:23;9.11;84.19
70271;SHT31;57680;54.292;18.598;2023-04-25T07:25:48;9.04;84.26
70271;SHT31;57680;54.292;18.598;2023-04-25T07:28:13;9.08;83.68
70271;SHT31;57680;54.292;18.598;2023-04-25T07:30:39;9.08;84.45
70271;SHT31;57680;54.292;18.598;2023-04-25T07:33:06;9.07;83.81
70271;SHT31;57680;54.292;18.598;2023-04-25T07:35:31;9.11;85.07
70271;SHT31;57680;54.292;18.598;2023-04-25T07:37:56;9.12;82.97
70271;SHT31;57680;54.292;18.598;2023-04-25T07:40:22;9.12;83.41
70271;SHT31;57680;54.292;18.598;2023-04-25T07:42:47;9.07;83.58
70271;SHT31;57680;54.292;18.598;2023-04-25T07:45:12;9.04;84.04
70271;SHT31;57680;54.292;18.598;2023-04-25T07:47:38;9.07;84.23
70271;SHT31;57680;54.292;18.598;2023-04-25T07:50:04;9.04;83.67
70271;SHT31;57680;54.292;18.598;2023-04-25T07:52:29;9.14;83.73
70271;SHT31;57680;54.292;18.598;2023-04-25T07:54:55;9.11;83.80
70271;SHT31;57680;54.292;18.598;2023-04-25T07:57:20;9.15;83.28
70271;SHT31;57680;54.292;18.598;2023-04-25T07:59:45;9.15;83.21
70271;SHT31;57680;54.292;18.598;2023-04-25T08:02:11;9.32;83.49
70271;SHT31;57680;54.292;18.598;2023-04-25T08:04:36;9.47;82.14
70271;SHT31;57680;54.292;18.598;2023-04-25T08:07:02;9.79;81.01
70271;SHT31;57680;54.292;18.598;2023-04-25T08:09:27;10.10;80.30
70271;SHT31;57680;54.292;18.598;2023-04-25T08:11:53;10.31;80.23
70271;SHT31;57680;54.292;18.598;2023-04-25T08:14:18;10.48;78.31
70271;SHT31;57680;54.292;18.598;2023-04-25T08:16:43;10.59;78.54
70271;SHT31;57680;54.292;18.598;2023-04-25T08:19:09;10.59;77.60
70271;SHT31;57680;54.292;18.598;2023-04-25T08:21:34;10.64;77.21
70271;SHT31;57680;54.292;18.598;2023-04-25T08:24:00;10.65;77.66
70271;SHT31;57680;54.292;18.598;2023-04-25T08:26:25;10.55;77.72
70271;SHT31;57680;54.292;18.598;2023-04-25T08:28:51;10.62;78.14
70271;SHT31;57680;54.292;18.598;2023-04-25T08:31:16;10.65;77.45
70271;SHT31;57680;54.292;18.598;2023-04-25T08:33:42;10.62;75.99
70271;SHT31;57680;54.292;18.598;2023-04-25T08:36:07;10.68;75.92
70271;SHT31;57680;54.292;18.598;2023-04-25T08:38:33;10.75;76.46
70271;SHT31;57680;54.292;18.598;2023-04-25T08:40:59;10.85;76.47
70271;SHT31;57680;54.292;18.598;2023-04-25T08:43:25;10.82;74.48
70271;SHT31;57680;54.292;18.598;2023-04-25T08:45:52;10.88;74.08
70271;SHT31;57680;54.292;18.598;2023-04-25T08:48:18;10.99;73.84
70271;SHT31;57680;54.292;18.598;2023-04-25T08:50:54;11.06;72.86
70271;SHT31;57680;54.292;18.598;2023-04-25T08:53:25;11.10;73.83
70271;SHT31;57680;54.292;18.598;2023-04-25T08:55:57;11.16;73.53
70271;SHT31;57680;54.292;18.598;2023-04-25T08:58:23;11.22;72.20
70271;SHT31;57680;54.292;18.598;2023-04-25T09:00:49;11.37;71.42
70271;SHT31;57680;54.292;18.598;2023-04-25T09:03:15;11.38;71.41
70271;SHT31;57680;54.292;18.598;2023-04-25T09:05:41;11.53;72.73
70271;SHT31;57680;54.292;18.598;2023-04-25T09:08:07;11.65;72.70
70271;SHT31;57680;54.292;18.598;2023-04-25T09:10:33;11.74;70.08
70271;SHT31;57680;54.292;18.598;2023-04-25T09:13:10;11.86;71.29
70271;SHT31;57680;54.292;18.598;2023-04-25T09:15:52;11.86;70.22
70271;SHT31;57680;54.292;18.598;2023-04-25T09:18:31;11.82;70.24
70271;SHT31;57680;54.292;18.598;2023-04-25T09:21:05;11.85;70.81
70271;SHT31;57680;54.292;18.598;2023-04-25T09:23:39;11.68;70.59
70271;SHT31;57680;54.292;18.598;2023-04-25T09:26:07;11.45;71.39
70271;SHT31;57680;54.292;18.598;2023-04-25T09:28:32;11.38;73.14
70271;SHT31;57680;54.292;18.598;2023-04-25T09:30:58;11.22;72.47
70271;SHT31;57680;54.292;18.598;2023-04-25T09:33:31;10.96;72.86
70271;SHT31;57680;54.292;18.598;2023-04-25T09:36:05;10.80;74.02
70271;SHT31;57680;54.292;18.598;2023-04-25T09:38:31;10.66;74.35
70271;SHT31;57680;54.292;18.598;2023-04-25T09:40:58;10.62;74.44
70271;SHT31;57680;54.292;18.598;2023-04-25T09:43:25;10.71;74.79
70271;SHT31;57680;54.292;18.598;2023-04-25T09:45:51;10.75;74.22
70271;SHT31;57680;54.292;18.598;2023-04-25T09:48:19;10.76;73.94
70271;SHT31;57680;54.292;18.598;2023-04-25T09:50:45;10.77;74.86
70271;SHT31;57680;54.292;18.598;2023-04-25T09:53:11;10.77;74.82
70271;SHT31;57680;54.292;18.598;2023-04-25T09:55:37;10.75;74.89
70271;SHT31;57680;54.292;18.598;2023-04-25T09:58:06;10.73;74.92
70271;SHT31;57680;54.292;18.598;2023-04-25T10:00:32;10.75;74.35
70271;SHT31;57680;54.292;18.598;2023-04-25T10:03:02;10.83;74.72
70271;SHT31;57680;54.292;18.598;2023-04-25T10:05:30;10.86;74.68
70271;SHT31;57680;54.292;18.598;2023-04-25T10:07:56;10.85;74.44
70271;SHT31;57680;54.292;18.598;2023-04-25T10:10:21;10.91;73.83
70271;SHT31;57680;54.292;18.598;2023-04-25T10:12:47;10.89;73.59
70271;SHT31;57680;54.292;18.598;2023-04-25T10:15:14;10.88;73.46
70271;SHT31;57680;54.292;18.598;2023-04-25T10:17:40;10.95;73.49
70271;SHT31;57680;54.292;18.598;2023-04-25T10:20:06;11.06;74.44
70271;SHT31;57680;54.292;18.598;2023-04-25T10:22:41;11.19;73.41
70271;SHT31;57680;54.292;18.598;2023-04-25T10:25:07;11.28;73.75
70271;SHT31;57680;54.292;18.598;2023-04-25T10:27:34;11.40;72.91
70271;SHT31;57680;54.292;18.598;2023-04-25T10:30:08;11.44;73.03
70271;SHT31;57680;54.292;18.598;2023-04-25T10:32:33;11.48;73.76
70271;SHT31;57680;54.292;18.598;2023-04-25T10:35:23;11.41;71.97
70271;SHT31;57680;54.292;18.598;2023-04-25T10:38:11;11.35;71.71
70271;SHT31;57680;54.292;18.598;2023-04-25T10:40:39;11.27;71.91
70271;SHT31;57680;54.292;18.598;2023-04-25T10:46:01;11.09;72.36
70271;SHT31;57680;54.292;18.598;2023-04-25T10:48:28;10.99;72.03
70271;SHT31;57680;54.292;18.598;2023-04-25T10:51:09;11.00;72.93
70271;SHT31;57680;54.292;18.598;2023-04-25T10:53:35;10.93;71.92
70271;SHT31;57680;54.292;18.598;2023-04-25T10:56:00;10.91;71.37
70271;SHT31;57680;54.292;18.598;2023-04-25T10:58:34;10.91;72.74
70271;SHT31;57680;54.292;18.598;2023-04-25T11:00:59;10.89;73.04
70271;SHT31;57680;54.292;18.598;2023-04-25T11:03:26;10.82;73.10
70271;SHT31;57680;54.292;18.598;2023-04-25T11:05:52;10.83;72.90
70271;SHT31;57680;54.292;18.598;2023-04-25T11:08:24;10.82;74.03
70271;SHT31;57680;54.292;18.598;2023-04-25T11:10:55;10.82;73.85
70271;SHT31;57680;54.292;18.598;2023-04-25T11:13:20;10.83;73.34
70271;SHT31;57680;54.292;18.598;2023-04-25T11:15:51;10.97;72.21
70271;SHT31;57680;54.292;18.598;2023-04-25T11:18:17;10.89;71.33
70271;SHT31;57680;54.292;18.598;2023-04-25T11:20:43;10.89;72.38
70271;SHT31;57680;54.292;18.598;2023-04-25T11:23:08;10.89;70.39
70271;SHT31;57680;54.292;18.598;2023-04-25T11:25:33;10.88;70.51
70271;SHT31;57680;54.292;18.598;2023-04-25T11:28:00;10.92;71.47
70271;SHT31;57680;54.292;18.598;2023-04-25T11:30:26;10.95;70.41
70271;SHT31;57680;54.292;18.598;2023-04-25T11:32:52;10.99;70.81
70271;SHT31;57680;54.292;18.598;2023-04-25T11:35:20;11.10;71.34
70271;SHT31;57680;54.292;18.598;2023-04-25T11:37:46;11.19;71.25
70271;SHT31;57680;54.292;18.598;2023-04-25T11:40:12;11.27;70.77
70271;SHT31;57680;54.292;18.598;2023-04-25T11:42:38;11.34;70.72
70271;SHT31;57680;54.292;18.598;2023-04-25T11:45:04;11.43;70.18
70271;SHT31;57680;54.292;18.598;2023-04-25T11:47:30;11.48;69.52
70271;SHT31;57680;54.292;18.598;2023-04-25T11:50:04;11.43;68.57
70271;SHT31;57680;54.292;18.598;2023-04-25T11:52:42;11.45;68.57
70271;SHT31;57680;54.292;18.598;2023-04-25T11:55:09;11.37;68.84
70271;SHT31;57680;54.292;18.598;2023-04-25T11:57:34;11.38;69.16
70271;SHT31;57680;54.292;18.598;2023-04-25T12:00:11;11.43;69.40
70271;SHT31;57680;54.292;18.598;2023-04-25T12:02:40;11.47;69.79
70271;SHT31;57680;54.292;18.598;2023-04-25T12:05:09;11.50;70.12
70271;SHT31;57680;54.292;18.598;2023-04-25T12:07:35;11.51;70.20
70271;SHT31;57680;54.292;18.598;2023-04-25T12:10:08;11.55;71.17
70271;SHT31;57680;54.292;18.598;2023-04-25T12:12:35;11.53;70.11
70271;SHT31;57680;54.292;18.598;2023-04-25T12:15:44;11.50;68.07
70271;SHT31;57680;54.292;18.598;2023-04-25T12:18:02;11.43;67.39
70271;SHT31;57680;54.292;18.598;2023-04-25T12:20:27;11.45;67.30
70271;SHT31;57680;54.292;18.598;2023-04-25T12:22:53;11.41;67.00
70271;SHT31;57680;54.292;18.598;2023-04-25T12:25:44;11.47;66.32
70271;SHT31;57680;54.292;18.598;2023-04-25T12:28:20;11.51;65.90
70271;SHT31;57680;54.292;18.598;2023-04-25T12:30:59;11.67;65.96
70271;SHT31;57680;54.292;18.598;2023-04-25T12:33:29;11.84;67.41
70271;SHT31;57680;54.292;18.598;2023-04-25T12:35:55;11.86;65.70
70271;SHT31;57680;54.292;18.598;2023-04-25T12:38:27;11.77;67.10
70271;SHT31;57680;54.292;18.598;2023-04-25T12:40:53;11.63;66.30
70271;SHT31;57680;54.292;18.598;2023-04-25T12:43:19;11.48;66.56
70271;SHT31;57680;54.292;18.598;2023-04-25T12:45:48;11.30;66.22
70271;SHT31;57680;54.292;18.598;2023-04-25T12:48:13;11.14;67.21
70271;SHT31;57680;54.292;18.598;2023-04-25T12:50:38;10.97;67.50
70271;SHT31;57680;54.292;18.598;2023-04-25T12:53:04;10.99;68.25
70271;SHT31;57680;54.292;18.598;2023-04-25T12:55:29;10.95;69.39
70271;SHT31;57680;54.292;18.598;2023-04-25T12:57:54;10.92;70.02
70271;SHT31;57680;54.292;18.598;2023-04-25T13:00:20;10.89;69.38
70271;SHT31;57680;54.292;18.598;2023-04-25T13:02:45;10.89;70.32
70271;SHT31;57680;54.292;18.598;2023-04-25T13:05:11;10.88;70.06
70271;SHT31;57680;54.292;18.598;2023-04-25T13:07:36;10.86;70.86
70271;SHT31;57680;54.292;18.598;2023-04-25T13:10:01;10.86;70.49
70271;SHT31;57680;54.292;18.598;2023-04-25T13:12:27;10.85;70.63
70271;SHT31;57680;54.292;18.598;2023-04-25T13:14:52;10.88;69.92
70271;SHT31;57680;54.292;18.598;2023-04-25T13:17:17;10.92;70.15
70271;SHT31;57680;54.292;18.598;2023-04-25T13:19:43;10.99;69.98
70271;SHT31;57680;54.292;18.598;2023-04-25T13:22:08;11.13;71.32
70271;SHT31;57680;54.292;18.598;2023-04-25T13:24:33;11.14;70.97
70271;SHT31;57680;54.292;18.598;2023-04-25T13:26:58;11.12;70.97
70271;SHT31;57680;54.292;18.598;2023-04-25T13:29:24;11.10;71.54
70271;SHT31;57680;54.292;18.598;2023-04-25T13:31:49;11.02;70.83
70271;SHT31;57680;54.292;18.598;2023-04-25T13:34:14;11.03;72.20
70271;SHT31;57680;54.292;18.598;2023-04-25T13:36:40;10.96;71.59
70271;SHT31;57680;54.292;18.598;2023-04-25T13:39:05;10.86;71.35
70271;SHT31;57680;54.292;18.598;2023-04-25T13:41:30;10.77;71.40
70271;SHT31;57680;54.292;18.598;2023-04-25T13:43:56;10.68;71.67
70271;SHT31;57680;54.292;18.598;2023-04-25T13:46:21;10.62;71.86
70271;SHT31;57680;54.292;18.598;2023-04-25T13:48:46;10.61;72.06
70271;SHT31;57680;54.292;18.598;2023-04-25T13:51:13;10.64;71.86
70271;SHT31;57680;54.292;18.598;2023-04-25T13:53:38;10.72;72.26
70271;SHT31;57680;54.292;18.598;2023-04-25T13:56:03;10.76;72.25
70271;SHT31;57680;54.292;18.598;2023-04-25T13:58:29;10.76;72.04
70271;SHT31;57680;54.292;18.598;2023-04-25T14:00:54;10.79;71.31
70271;SHT31;57680;54.292;18.598;2023-04-25T14:03:19;10.82;72.06
70271;SHT31;57680;54.292;18.598;2023-04-25T14:05:45;10.83;71.89
70271;SHT31;57680;54.292;18.598;2023-04-25T14:08:10;10.89;72.41
70271;SHT31;57680;54.292;18.598;2023-04-25T14:10:36;10.88;70.97
70271;SHT31;57680;54.292;18.598;2023-04-25T14:13:02;10.85;71.24
70271;SHT31;57680;54.292;18.598;2023-04-25T14:15:27;10.88;71.32
70271;SHT31;57680;54.292;18.598;2023-04-25T14:17:53;10.85;71.08
70271;SHT31;57680;54.292;18.598;2023-04-25T14:20:18;10.86;71.46
70271;SHT31;57680;54.292;18.598;2023-04-25T14:22:43;10.82;71.60
70271;SHT31;57680;54.292;18.598;2023-04-25T14:25:09;10.85;71.67
70271;SHT31;57680;54.292;18.598;2023-04-25T14:27:34;10.85;72.16
70271;SHT31;57680;54.292;18.598;2023-04-25T14:29:59;10.83;71.67
70271;SHT31;57680;54.292;18.598;2023-04-25T14:32:25;10.80;71.78
70271;SHT31;57680;54.292;18.598;2023-04-25T14:34:50;10.82;71.97
70271;SHT31;57680;54.292;18.598;2023-04-25T14:37:15;10.75;72.51
70271;SHT31;57680;54.292;18.598;2023-04-25T14:39:40;10.52;71.50
70271;SHT31;57680;54.292;18.598;2023-04-25T14:42:06;10.21;71.62
70271;SHT31;57680;54.292;18.598;2023-04-25T14:44:31;10.00;71.38
70271;SHT31;57680;54.292;18.598;2023-04-25T14:46:56;9.72;72.72
70271;SHT31;57680;54.292;18.598;2023-04-25T14:49:22;9.53;73.65
70271;SHT31;57680;54.292;18.598;2023-04-25T14:51:47;9.45;74.01
70271;SHT31;57680;54.292;18.598;2023-04-25T14:54:12;9.38;74.02
70271;SHT31;57680;54.292;18.598;2023-04-25T14:56:38;9.26;74.46
70271;SHT31;57680;54.292;18.598;2023-04-25T14:59:03;9.25;75.51
70271;SHT31;57680;54.292;18.598;2023-04-25T15:01:28;9.16;74.41
70271;SHT31;57680;54.292;18.598;2023-04-25T15:03:54;9.10;74.39
70271;SHT31;57680;54.292;18.598;2023-04-25T15:06:19;9.00;75.14
70271;SHT31;57680;54.292;18.598;2023-04-25T15:08:44;8.95;74.65
70271;SHT31;57680;54.292;18.598;2023-04-25T15:11:10;9.03;74.27
70271;SHT31;57680;54.292;18.598;2023-04-25T15:13:35;9.05;74.47
70271;SHT31;57680;54.292;18.598;2023-04-25T15:16:00;9.04;74.08
70271;SHT31;57680;54.292;18.598;2023-04-25T15:18:26;9.00;74.71